Time;durP1;ratioP1;P1;durP2;ratioP2;P2;SDS_P1;SDS_P2;PMS_P1;PMS_P2;Temp;Humidity;BMP_temperature;BMP_pressure;BME280_temperature;BME280_humidity;BME280_pressure;Samples;Min_cycle;Max_cycle;Signal;HPM_P1;HPM_P2
2022/03/10 00:00:25;;;;;;;33.30;18.73;;;;;;;;;;5070835;28;20676;-77
2022/03/10 00:02:51;;;;;;;28.07;17.50;;;;;;;;;;5035175;28;20203;-78
2022/03/10 00:05:21;;;;;;;29.13;19.10;;;;;;;;;;5071875;28;20869;-78
2022/03/10 00:07:47;;;;;;;30.17;19.40;;;;;;;;;;5072361;28;20193;-78
2022/03/10 00:10:13;;;;;;;28.33;17.97;;;;;;;;;;5072923;28;20197;-77
2022/03/10 00:12:46;;;;;;;28.03;18.07;;;;;;;;;;5078434;28;20188;-78
2022/03/10 00:15:12;;;;;;;31.00;19.77;;;;;;;;;;5077449;28;20226;-78
2022/03/10 00:17:38;;;;;;;30.73;20.10;;;;;;;;;;5078623;28;20177;-78
2022/03/10 00:20:05;;;;;;;27.07;17.50;;;;;;;;;;5070207;28;20732;-77
2022/03/10 00:22:31;;;;;;;28.63;18.07;;;;;;;;;;5075729;28;20234;-78
2022/03/10 00:24:57;;;;;;;27.63;18.13;;;;;;;;;;5073985;28;20177;-78
2022/03/10 00:27:23;;;;;;;34.70;21.20;;;;;;;;;;5064611;28;20173;-78
2022/03/10 00:29:49;;;;;;;32.90;20.40;;;;;;;;;;5055035;28;20701;-78
2022/03/10 00:32:16;;;;;;;27.17;18.33;;;;;;;;;;5073953;28;20181;-78
2022/03/10 00:34:42;;;;;;;33.37;19.90;;;;;;;;;;5073341;28;20268;-77
2022/03/10 00:37:08;;;;;;;27.87;17.70;;;;;;;;;;5073790;28;20607;-78
2022/03/10 00:39:34;;;;;;;27.43;17.93;;;;;;;;;;5051157;28;20262;-77
2022/03/10 00:42:00;;;;;;;32.00;19.03;;;;;;;;;;5066194;28;20573;-78
2022/03/10 00:44:29;;;;;;;32.20;19.87;;;;;;;;;;5069127;28;20185;-78
2022/03/10 00:46:56;;;;;;;30.13;20.50;;;;;;;;;;5063563;28;20177;-78
2022/03/10 00:49:22;;;;;;;31.47;19.77;;;;;;;;;;5064854;28;20220;-78
2022/03/10 00:51:50;;;;;;;33.47;19.20;;;;;;;;;;5064818;28;20190;-78
2022/03/10 00:54:17;;;;;;;31.07;19.40;;;;;;;;;;5067095;28;20189;-77
2022/03/10 00:56:44;;;;;;;32.43;19.63;;;;;;;;;;5065582;28;20186;-78
2022/03/10 00:59:10;;;;;;;31.87;20.47;;;;;;;;;;5070934;28;20205;-78
2022/03/10 01:01:36;;;;;;;33.43;19.73;;;;;;;;;;5066674;28;20729;-77
2022/03/10 01:04:02;;;;;;;32.47;20.27;;;;;;;;;;5061737;28;20685;-78
2022/03/10 01:06:28;;;;;;;28.60;18.83;;;;;;;;;;5048027;28;20181;-77
2022/03/10 01:08:54;;;;;;;29.57;18.73;;;;;;;;;;5067743;28;20196;-78
2022/03/10 01:11:20;;;;;;;29.47;18.17;;;;;;;;;;5065490;28;20310;-78
2022/03/10 01:13:47;;;;;;;30.57;19.10;;;;;;;;;;5049829;28;20196;-78
2022/03/10 01:16:13;;;;;;;29.33;18.30;;;;;;;;;;5064535;28;20331;-78
2022/03/10 01:18:39;;;;;;;31.80;19.27;;;;;;;;;;5068300;28;20295;-77
2022/03/10 01:21:05;;;;;;;30.20;17.97;;;;;;;;;;5068583;28;20205;-78
2022/03/10 01:23:31;;;;;;;27.67;17.40;;;;;;;;;;5068360;28;20656;-78
2022/03/10 01:25:58;;;;;;;29.20;19.57;;;;;;;;;;5070991;28;20606;-78
2022/03/10 01:28:24;;;;;;;29.83;19.10;;;;;;;;;;5071871;28;20188;-79
2022/03/10 01:30:50;;;;;;;30.33;18.37;;;;;;;;;;5071538;28;20202;-78
2022/03/10 01:33:16;;;;;;;29.33;18.50;;;;;;;;;;5073051;28;20707;-78
2022/03/10 01:35:42;;;;;;;29.23;17.67;;;;;;;;;;5072201;28;20195;-78
2022/03/10 01:38:09;;;;;;;31.40;19.10;;;;;;;;;;5066426;28;20721;-78
2022/03/10 01:40:35;;;;;;;31.87;18.63;;;;;;;;;;5075154;28;20204;-78
2022/03/10 01:43:01;;;;;;;31.73;19.50;;;;;;;;;;5072184;28;20177;-78
2022/03/10 01:45:28;;;;;;;29.80;19.53;;;;;;;;;;5068910;28;20185;-78
2022/03/10 01:47:54;;;;;;;29.37;18.77;;;;;;;;;;5055754;28;20185;-78
2022/03/10 01:50:21;;;;;;;30.23;17.63;;;;;;;;;;5073988;28;20208;-78
2022/03/10 01:52:48;;;;;;;30.60;19.47;;;;;;;;;;5063419;28;20671;-78
2022/03/10 01:55:15;;;;;;;31.83;19.50;;;;;;;;;;5079268;28;20333;-78
2022/03/10 01:57:44;;;;;;;33.40;19.90;;;;;;;;;;5071881;28;20728;-78
2022/03/10 02:00:11;;;;;;;29.47;17.97;;;;;;;;;;5076422;28;20221;-78
2022/03/10 02:02:37;;;;;;;26.90;17.50;;;;;;;;;;5064625;28;20224;-77
2022/03/10 02:05:04;;;;;;;31.50;19.07;;;;;;;;;;5074351;28;20338;-78
2022/03/10 02:10:16;;;;;;;29.43;18.70;;;;;;;;;;5084442;28;20211;-78
2022/03/10 02:12:43;;;;;;;28.57;17.80;;;;;;;;;;5073513;28;20274;-77
2022/03/10 02:17:55;;;;;;;30.40;18.63;;;;;;;;;;5073547;28;20213;-77
2022/03/10 02:20:21;;;;;;;29.80;18.00;;;;;;;;;;5063096;28;20201;-77
2022/03/10 02:22:49;;;;;;;28.13;17.27;;;;;;;;;;5076027;28;20184;-77
2022/03/10 02:25:16;;;;;;;29.37;18.53;;;;;;;;;;5073015;28;20192;-77
2022/03/10 02:27:48;;;;;;;28.53;17.60;;;;;;;;;;5066516;28;20185;-77
2022/03/10 02:30:14;;;;;;;31.03;18.93;;;;;;;;;;5075416;28;20227;-77
2022/03/10 02:32:41;;;;;;;31.13;17.83;;;;;;;;;;5073268;28;20170;-77
2022/03/10 02:35:08;;;;;;;28.73;17.47;;;;;;;;;;5072704;28;20188;-77
2022/03/10 02:37:35;;;;;;;27.43;16.63;;;;;;;;;;5076140;28;20177;-77
2022/03/10 02:40:01;;;;;;;24.83;16.60;;;;;;;;;;5075727;28;20291;-77
2022/03/10 02:42:30;;;;;;;28.40;17.90;;;;;;;;;;5075169;28;20213;-77
2022/03/10 02:44:57;;;;;;;26.83;17.30;;;;;;;;;;5074566;28;20419;-77
2022/03/10 02:47:23;;;;;;;26.53;16.97;;;;;;;;;;5073728;28;20275;-78
2022/03/10 02:49:50;;;;;;;28.77;16.63;;;;;;;;;;5072772;28;20266;-78
2022/03/10 02:52:17;;;;;;;28.80;17.13;;;;;;;;;;5074320;28;20430;-78
2022/03/10 02:54:44;;;;;;;25.53;15.90;;;;;;;;;;5079825;28;20177;-78
2022/03/10 02:57:11;;;;;;;28.47;17.07;;;;;;;;;;5065277;28;20181;-77
2022/03/10 02:59:37;;;;;;;25.80;16.07;;;;;;;;;;5073765;28;20201;-78
2022/03/10 03:02:04;;;;;;;30.10;17.93;;;;;;;;;;5083286;28;20523;-78
2022/03/10 03:04:30;;;;;;;28.80;18.00;;;;;;;;;;5080203;28;20309;-78
2022/03/10 03:06:56;;;;;;;27.37;16.90;;;;;;;;;;5072864;28;20193;-77
2022/03/10 03:09:22;;;;;;;27.80;17.97;;;;;;;;;;5072764;28;20235;-77
2022/03/10 03:11:49;;;;;;;27.47;17.07;;;;;;;;;;5073350;28;20185;-77
2022/03/10 03:14:15;;;;;;;32.07;17.80;;;;;;;;;;5064401;28;20177;-77
2022/03/10 03:16:41;;;;;;;27.97;18.00;;;;;;;;;;5074494;28;20181;-77
2022/03/10 03:19:07;;;;;;;25.90;17.00;;;;;;;;;;5071854;28;20216;-78
2022/03/10 03:21:34;;;;;;;27.97;17.73;;;;;;;;;;5071438;28;20455;-78
2022/03/10 03:24:00;;;;;;;30.60;17.87;;;;;;;;;;5072763;28;20430;-78
2022/03/10 03:26:26;;;;;;;28.73;17.67;;;;;;;;;;5072028;28;20188;-77
2022/03/10 03:28:52;;;;;;;28.57;17.80;;;;;;;;;;5073095;28;20201;-77
2022/03/10 03:31:20;;;;;;;29.03;17.70;;;;;;;;;;5068586;28;20221;-78
2022/03/10 03:33:46;;;;;;;27.30;18.37;;;;;;;;;;5072247;28;20181;-77
2022/03/10 03:36:12;;;;;;;26.00;16.70;;;;;;;;;;5070120;28;20742;-77
2022/03/10 03:38:38;;;;;;;30.60;17.90;;;;;;;;;;5067879;28;20205;-78
2022/03/10 03:41:05;;;;;;;26.60;16.93;;;;;;;;;;5070597;28;20451;-78
2022/03/10 03:43:31;;;;;;;27.43;16.63;;;;;;;;;;5070601;28;20645;-77
2022/03/10 03:45:58;;;;;;;25.60;16.73;;;;;;;;;;5072249;28;20253;-78
2022/03/10 03:48:27;;;;;;;30.40;18.80;;;;;;;;;;5069395;28;20181;-77
2022/03/10 03:50:53;;;;;;;26.43;16.50;;;;;;;;;;5085809;28;20201;-78
2022/03/10 03:53:19;;;;;;;29.03;17.53;;;;;;;;;;5067510;28;20667;-77
2022/03/10 03:55:45;;;;;;;26.07;17.57;;;;;;;;;;5067266;28;20460;-78
2022/03/10 03:58:11;;;;;;;28.00;17.43;;;;;;;;;;5070982;28;20533;-78
2022/03/10 04:00:38;;;;;;;25.50;16.57;;;;;;;;;;5066591;28;20277;-77
2022/03/10 04:03:10;;;;;;;28.70;17.87;;;;;;;;;;5063302;28;20943;-78
2022/03/10 04:05:37;;;;;;;28.07;18.10;;;;;;;;;;5063128;28;20483;-77
2022/03/10 04:08:04;;;;;;;31.63;18.00;;;;;;;;;;5086381;28;20213;-77
2022/03/10 04:10:31;;;;;;;27.67;16.90;;;;;;;;;;5066152;28;20228;-77
2022/03/10 04:12:58;;;;;;;31.80;18.60;;;;;;;;;;5067245;28;20200;-77
2022/03/10 04:15:24;;;;;;;32.17;17.87;;;;;;;;;;5067620;28;20181;-77
2022/03/10 04:17:50;;;;;;;31.40;17.77;;;;;;;;;;5069905;28;20196;-78
2022/03/10 04:20:16;;;;;;;31.00;17.97;;;;;;;;;;5065694;28;20883;-77
2022/03/10 04:22:42;;;;;;;26.93;17.80;;;;;;;;;;5065108;28;20174;-77
2022/03/10 04:25:09;;;;;;;31.47;18.37;;;;;;;;;;5066695;28;20245;-77
2022/03/10 04:27:35;;;;;;;28.77;17.87;;;;;;;;;;5060841;28;20431;-77
2022/03/10 04:30:02;;;;;;;29.90;17.90;;;;;;;;;;5069939;28;20455;-77
2022/03/10 04:32:28;;;;;;;27.57;18.00;;;;;;;;;;5069026;28;20435;-78
2022/03/10 04:34:54;;;;;;;30.50;17.63;;;;;;;;;;5065512;28;20189;-77
2022/03/10 04:37:20;;;;;;;29.80;17.40;;;;;;;;;;5068516;28;20613;-77
2022/03/10 04:39:46;;;;;;;33.80;18.10;;;;;;;;;;5067101;28;20471;-78
2022/03/10 04:42:12;;;;;;;32.33;18.10;;;;;;;;;;5065749;28;20643;-77
2022/03/10 04:44:39;;;;;;;27.97;17.43;;;;;;;;;;5065750;28;20467;-77
2022/03/10 04:47:05;;;;;;;29.43;18.13;;;;;;;;;;5069144;28;20850;-78
2022/03/10 04:49:31;;;;;;;26.13;16.70;;;;;;;;;;5070666;28;20443;-78
2022/03/10 04:51:57;;;;;;;31.20;18.17;;;;;;;;;;5056956;28;20691;-78
2022/03/10 04:54:23;;;;;;;30.17;18.10;;;;;;;;;;5069687;28;20473;-78
2022/03/10 04:56:50;;;;;;;32.00;18.17;;;;;;;;;;5070829;28;20512;-78
2022/03/10 04:59:16;;;;;;;28.43;17.93;;;;;;;;;;5072190;28;20201;-77
2022/03/10 05:01:42;;;;;;;30.13;18.53;;;;;;;;;;5053407;28;20714;-77
2022/03/10 05:04:09;;;;;;;29.40;18.07;;;;;;;;;;5070427;28;20438;-77
2022/03/10 05:06:35;;;;;;;30.67;18.30;;;;;;;;;;5067298;28;20759;-77
2022/03/10 05:09:01;;;;;;;33.03;19.23;;;;;;;;;;5066403;28;20447;-78
2022/03/10 05:11:27;;;;;;;32.67;19.33;;;;;;;;;;5069620;28;20213;-77
2022/03/10 05:13:53;;;;;;;31.37;19.37;;;;;;;;;;5068640;28;21013;-77
2022/03/10 05:16:19;;;;;;;31.83;19.10;;;;;;;;;;5069614;28;20435;-77
2022/03/10 05:18:46;;;;;;;34.93;20.13;;;;;;;;;;5070798;28;20530;-78
2022/03/10 05:21:12;;;;;;;32.10;19.20;;;;;;;;;;5066803;28;20207;-77
2022/03/10 05:23:38;;;;;;;32.73;19.40;;;;;;;;;;5073141;28;20946;-78
2022/03/10 05:26:04;;;;;;;34.20;19.60;;;;;;;;;;5077736;28;20431;-77
2022/03/10 05:28:31;;;;;;;30.07;18.90;;;;;;;;;;5077149;28;20451;-77
2022/03/10 05:30:57;;;;;;;35.83;21.27;;;;;;;;;;5082705;28;20239;-77
2022/03/10 05:33:23;;;;;;;28.93;19.10;;;;;;;;;;5076754;28;20985;-78
2022/03/10 05:35:49;;;;;;;34.80;20.20;;;;;;;;;;5076776;28;20446;-78
2022/03/10 05:38:15;;;;;;;34.17;19.77;;;;;;;;;;5075136;28;20482;-78
2022/03/10 05:40:41;;;;;;;32.33;18.73;;;;;;;;;;5076780;28;20474;-77
2022/03/10 05:43:07;;;;;;;31.00;18.43;;;;;;;;;;5080049;28;20487;-77
2022/03/10 05:45:33;;;;;;;32.50;18.73;;;;;;;;;;5056029;28;20424;-77
2022/03/10 05:48:00;;;;;;;30.40;19.27;;;;;;;;;;5076354;28;20492;-77
2022/03/10 05:50:26;;;;;;;28.50;18.93;;;;;;;;;;5056542;28;20467;-77
2022/03/10 05:52:53;;;;;;;34.33;20.30;;;;;;;;;;5073631;28;20196;-78
2022/03/10 05:55:20;;;;;;;31.80;20.00;;;;;;;;;;5072858;28;21317;-78
2022/03/10 05:57:47;;;;;;;34.93;20.47;;;;;;;;;;5074022;28;20451;-77
2022/03/10 06:00:14;;;;;;;34.03;20.00;;;;;;;;;;5071893;28;20454;-78
2022/03/10 06:02:41;;;;;;;32.90;19.57;;;;;;;;;;5071626;28;20467;-77
2022/03/10 06:05:07;;;;;;;38.47;20.37;;;;;;;;;;5073017;28;20779;-77
2022/03/10 06:07:34;;;;;;;34.57;20.10;;;;;;;;;;5084456;28;20530;-77
2022/03/10 06:10:03;;;;;;;34.33;19.80;;;;;;;;;;5067396;28;20977;-77
2022/03/10 06:12:29;;;;;;;34.40;19.13;;;;;;;;;;5068207;28;20450;-77
2022/03/10 06:14:56;;;;;;;31.43;19.00;;;;;;;;;;5071168;28;20507;-77
2022/03/10 06:17:23;;;;;;;35.13;20.03;;;;;;;;;;5070828;28;20249;-79
2022/03/10 06:19:50;;;;;;;36.13;21.13;;;;;;;;;;5071867;28;20476;-79
2022/03/10 06:22:17;;;;;;;34.43;21.17;;;;;;;;;;5055129;28;20514;-79
2022/03/10 06:24:44;;;;;;;37.23;21.20;;;;;;;;;;5075863;28;20430;-78
2022/03/10 06:27:11;;;;;;;40.73;21.07;;;;;;;;;;5070069;28;20439;-78
2022/03/10 06:29:41;;;;;;;39.00;20.80;;;;;;;;;;5074101;28;20455;-78
2022/03/10 06:32:07;;;;;;;33.83;20.47;;;;;;;;;;5051551;28;20597;-77
2022/03/10 06:34:34;;;;;;;39.77;22.43;;;;;;;;;;5087359;28;20471;-77
2022/03/10 06:37:00;;;;;;;41.67;22.87;;;;;;;;;;5079018;28;20210;-80
2022/03/10 06:39:27;;;;;;;43.57;24.20;;;;;;;;;;5074760;28;20672;-81
2022/03/10 06:41:53;;;;;;;37.87;23.57;;;;;;;;;;5072170;28;20431;-79
2022/03/10 06:44:19;;;;;;;38.07;22.77;;;;;;;;;;5072121;28;20442;-77
2022/03/10 06:46:45;;;;;;;39.40;21.20;;;;;;;;;;5074959;28;20245;-77
2022/03/10 06:49:12;;;;;;;35.97;21.87;;;;;;;;;;5080211;28;20181;-78
2022/03/10 06:51:39;;;;;;;34.00;21.20;;;;;;;;;;5079288;28;20208;-78
2022/03/10 06:54:05;;;;;;;34.33;20.90;;;;;;;;;;5071781;28;20237;-79
2022/03/10 06:56:31;;;;;;;30.40;20.53;;;;;;;;;;5075744;28;20503;-79
2022/03/10 06:58:57;;;;;;;36.07;20.53;;;;;;;;;;5074542;28;20201;-80
2022/03/10 07:01:24;;;;;;;30.03;20.20;;;;;;;;;;5089794;28;20215;-81
2022/03/10 07:03:51;;;;;;;30.93;19.70;;;;;;;;;;5058576;28;20182;-80
2022/03/10 07:06:18;;;;;;;33.17;21.93;;;;;;;;;;5073990;28;20518;-81
2022/03/10 07:08:44;;;;;;;36.77;20.00;;;;;;;;;;5071554;28;20177;-82
2022/03/10 07:11:10;;;;;;;32.77;19.57;;;;;;;;;;5071782;28;20205;-80
2022/03/10 07:13:36;;;;;;;29.87;19.70;;;;;;;;;;5035170;28;20190;-81
2022/03/10 07:16:03;;;;;;;31.23;18.93;;;;;;;;;;5068369;28;20182;-80
2022/03/10 07:18:29;;;;;;;32.73;20.40;;;;;;;;;;5046766;28;20551;-81
2022/03/10 07:20:55;;;;;;;32.50;21.47;;;;;;;;;;5054889;28;20620;-80
2022/03/10 07:23:21;;;;;;;31.80;21.40;;;;;;;;;;5072934;28;20181;-81
2022/03/10 07:25:47;;;;;;;35.77;21.87;;;;;;;;;;5072101;28;20204;-80
2022/03/10 07:28:14;;;;;;;38.00;22.47;;;;;;;;;;5057788;28;20189;-79
2022/03/10 07:30:40;;;;;;;38.70;22.20;;;;;;;;;;5073556;28;20743;-81
2022/03/10 07:33:07;;;;;;;38.57;23.10;;;;;;;;;;5034681;28;20194;-81
2022/03/10 07:35:33;;;;;;;33.03;20.90;;;;;;;;;;5071745;28;20242;-81
2022/03/10 07:37:59;;;;;;;32.13;20.83;;;;;;;;;;5061680;28;20173;-81
2022/03/10 07:40:27;;;;;;;34.30;21.30;;;;;;;;;;5071944;28;20197;-80
2022/03/10 07:42:53;;;;;;;31.57;20.20;;;;;;;;;;5071391;28;20247;-81
2022/03/10 07:45:20;;;;;;;29.37;19.23;;;;;;;;;;5036874;28;20173;-80
2022/03/10 07:47:46;;;;;;;33.07;20.33;;;;;;;;;;5071815;28;20759;-81
2022/03/10 07:50:12;;;;;;;34.53;20.80;;;;;;;;;;5070440;28;20205;-82
2022/03/10 07:52:39;;;;;;;30.37;20.20;;;;;;;;;;5054439;28;20276;-81
2022/03/10 07:55:05;;;;;;;32.43;21.03;;;;;;;;;;5060066;28;20238;-81
2022/03/10 07:57:34;;;;;;;29.97;20.37;;;;;;;;;;5072642;28;20174;-81
2022/03/10 08:00:00;;;;;;;33.00;20.80;;;;;;;;;;5071630;28;20243;-82
2022/03/10 08:02:26;;;;;;;28.53;19.80;;;;;;;;;;5037302;28;20173;-82
2022/03/10 08:04:52;;;;;;;32.40;21.27;;;;;;;;;;5037477;28;20231;-81
2022/03/10 08:07:18;;;;;;;29.67;19.70;;;;;;;;;;5072488;28;20162;-80
2022/03/10 08:09:44;;;;;;;30.27;19.47;;;;;;;;;;5071282;28;20267;-80
2022/03/10 08:12:11;;;;;;;29.37;19.27;;;;;;;;;;5075940;28;20185;-80
2022/03/10 08:14:37;;;;;;;31.57;21.07;;;;;;;;;;5072938;28;20193;-81
2022/03/10 08:17:03;;;;;;;28.13;19.20;;;;;;;;;;5074613;28;20208;-81
2022/03/10 08:19:30;;;;;;;33.10;19.00;;;;;;;;;;5069700;28;20215;-81
2022/03/10 08:21:56;;;;;;;35.00;20.97;;;;;;;;;;5072760;28;20232;-82
2022/03/10 08:24:22;;;;;;;32.67;20.27;;;;;;;;;;5075869;28;21456;-80
2022/03/10 08:26:49;;;;;;;28.73;20.00;;;;;;;;;;5089962;28;20928;-80
2022/03/10 08:29:15;;;;;;;28.70;18.57;;;;;;;;;;5062610;28;20224;-82
2022/03/10 08:31:41;;;;;;;30.23;18.40;;;;;;;;;;5079488;28;20184;-81
2022/03/10 08:34:07;;;;;;;27.47;18.43;;;;;;;;;;5067894;28;20204;-80
2022/03/10 08:36:34;;;;;;;29.83;19.20;;;;;;;;;;5078722;28;20620;-81
2022/03/10 08:39:00;;;;;;;32.03;18.93;;;;;;;;;;5063449;28;20208;-81
2022/03/10 08:41:26;;;;;;;31.20;20.60;;;;;;;;;;5057557;28;20212;-81
2022/03/10 08:43:53;;;;;;;28.33;19.63;;;;;;;;;;5083875;28;20185;-82
2022/03/10 08:46:19;;;;;;;28.37;20.00;;;;;;;;;;5072018;28;20174;-81
2022/03/10 08:48:46;;;;;;;28.97;19.40;;;;;;;;;;5043926;28;20193;-82
2022/03/10 08:51:12;;;;;;;32.37;20.30;;;;;;;;;;5074088;28;20201;-81
2022/03/10 08:53:38;;;;;;;31.03;19.47;;;;;;;;;;5075414;28;20212;-81
2022/03/10 08:56:07;;;;;;;33.23;19.40;;;;;;;;;;5049661;28;20181;-82
2022/03/10 08:58:33;;;;;;;26.10;18.23;;;;;;;;;;5070486;28;20248;-81
2022/03/10 09:00:59;;;;;;;26.30;19.17;;;;;;;;;;5061266;28;20266;-81
2022/03/10 09:03:26;;;;;;;27.93;19.80;;;;;;;;;;5049248;28;20185;-82
2022/03/10 09:05:53;;;;;;;30.63;20.37;;;;;;;;;;5058976;28;20181;-82
2022/03/10 09:08:20;;;;;;;29.67;18.77;;;;;;;;;;5042025;28;20185;-82
2022/03/10 09:10:46;;;;;;;28.37;19.30;;;;;;;;;;5063424;28;20208;-81
2022/03/10 09:13:13;;;;;;;30.53;19.30;;;;;;;;;;5068561;28;20811;-81
2022/03/10 09:15:39;;;;;;;28.83;18.80;;;;;;;;;;5078304;28;20176;-81
2022/03/10 09:18:06;;;;;;;29.50;19.60;;;;;;;;;;5085291;28;20177;-82
2022/03/10 09:20:33;;;;;;;25.40;18.50;;;;;;;;;;5061735;28;20189;-81
2022/03/10 09:22:59;;;;;;;28.10;18.30;;;;;;;;;;5076094;28;20177;-81
2022/03/10 09:25:25;;;;;;;27.20;17.97;;;;;;;;;;5077227;28;20181;-80
2022/03/10 09:27:51;;;;;;;24.33;16.60;;;;;;;;;;5075281;28;20181;-82
2022/03/10 09:30:19;;;;;;;25.50;17.47;;;;;;;;;;5052845;28;20200;-81
2022/03/10 09:32:45;;;;;;;24.87;17.33;;;;;;;;;;5075834;28;20162;-81
2022/03/10 09:35:13;;;;;;;25.67;17.97;;;;;;;;;;5078847;28;20193;-82
2022/03/10 09:37:40;;;;;;;27.47;19.23;;;;;;;;;;5082347;28;20176;-80
2022/03/10 09:40:08;;;;;;;31.20;19.70;;;;;;;;;;5075575;28;20220;-77
2022/03/10 09:42:35;;;;;;;26.53;19.03;;;;;;;;;;5075658;28;20230;-76
2022/03/10 09:45:03;;;;;;;29.07;18.57;;;;;;;;;;5073308;28;20176;-77
2022/03/10 09:47:29;;;;;;;30.37;19.60;;;;;;;;;;5078675;28;20615;-80
2022/03/10 09:49:56;;;;;;;27.10;18.63;;;;;;;;;;5072787;28;21477;-83
2022/03/10 09:52:23;;;;;;;27.03;18.03;;;;;;;;;;5073860;28;20192;-81
2022/03/10 09:54:49;;;;;;;26.20;17.40;;;;;;;;;;5074299;28;20209;-79
2022/03/10 09:57:16;;;;;;;24.20;17.47;;;;;;;;;;5083186;28;20196;-79
2022/03/10 09:59:49;;;;;;;27.30;16.73;;;;;;;;;;5073691;28;20200;-78
2022/03/10 10:02:16;;;;;;;23.77;17.27;;;;;;;;;;5077443;28;20549;-79
2022/03/10 10:04:43;;;;;;;23.63;16.60;;;;;;;;;;5076937;28;20177;-79
2022/03/10 10:07:10;;;;;;;21.97;15.80;;;;;;;;;;5074667;28;20208;-79
2022/03/10 10:09:41;;;;;;;25.03;15.60;;;;;;;;;;5074604;28;20330;-78
2022/03/10 10:12:08;;;;;;;23.93;16.73;;;;;;;;;;5074329;28;20181;-78
2022/03/10 10:14:38;;;;;;;20.33;15.30;;;;;;;;;;5071037;28;20193;-79
2022/03/10 10:17:05;;;;;;;20.43;14.57;;;;;;;;;;5072628;28;20272;-79
2022/03/10 10:19:35;;;;;;;21.57;15.47;;;;;;;;;;5074454;28;20696;-78
2022/03/10 10:22:10;;;;;;;20.17;15.20;;;;;;;;;;5074656;28;20212;-79
2022/03/10 10:24:37;;;;;;;22.00;15.83;;;;;;;;;;5064493;28;20634;-79
2022/03/10 10:27:20;;;;;;;20.03;14.20;;;;;;;;;;5061754;28;20204;-79
2022/03/10 10:29:51;;;;;;;22.67;14.57;;;;;;;;;;5079245;28;20207;-78
2022/03/10 10:32:30;;;;;;;18.13;13.70;;;;;;;;;;5073347;28;20181;-79
2022/03/10 10:35:00;;;;;;;18.33;12.57;;;;;;;;;;5072317;28;20272;-79
2022/03/10 10:37:26;;;;;;;15.33;12.10;;;;;;;;;;5078252;28;20238;-79
2022/03/10 10:39:56;;;;;;;16.07;12.77;;;;;;;;;;5072596;28;20279;-81
2022/03/10 10:42:27;;;;;;;15.87;11.33;;;;;;;;;;5074395;28;20181;-79
2022/03/10 10:44:54;;;;;;;16.00;11.70;;;;;;;;;;5072529;28;20193;-79
2022/03/10 10:47:20;;;;;;;14.83;10.03;;;;;;;;;;5083348;28;20195;-78
2022/03/10 10:49:55;;;;;;;11.70;9.23;;;;;;;;;;5089843;28;20201;-78
2022/03/10 10:52:22;;;;;;;11.17;8.10;;;;;;;;;;5099911;28;20211;-79
2022/03/10 10:54:48;;;;;;;10.93;7.37;;;;;;;;;;5068186;28;20210;-78
2022/03/10 10:57:21;;;;;;;9.67;7.07;;;;;;;;;;5067322;28;20192;-74
2022/03/10 10:59:48;;;;;;;8.73;5.73;;;;;;;;;;5069922;28;20518;-78
2022/03/10 11:02:17;;;;;;;6.10;5.43;;;;;;;;;;5060237;28;20575;-76
2022/03/10 11:04:50;;;;;;;8.97;7.47;;;;;;;;;;5067114;28;20177;-78
2022/03/10 11:07:17;;;;;;;9.90;7.93;;;;;;;;;;5083734;28;20177;-76
2022/03/10 11:09:45;;;;;;;11.83;7.23;;;;;;;;;;5069397;28;20208;-76
2022/03/10 11:12:13;;;;;;;7.50;5.77;;;;;;;;;;5069248;28;20185;-76
2022/03/10 11:14:40;;;;;;;8.37;6.07;;;;;;;;;;5070320;28;20195;-75
2022/03/10 11:17:06;;;;;;;10.43;6.97;;;;;;;;;;5068232;28;20880;-76
2022/03/10 11:19:34;;;;;;;7.90;5.10;;;;;;;;;;5068082;28;20287;-75
2022/03/10 11:22:19;;;;;;;16.63;13.77;;;;;;;;;;5065624;28;20722;-76
2022/03/10 11:25:04;;;;;;;6.47;5.17;;;;;;;;;;5066382;28;20603;-76
2022/03/10 11:27:34;;;;;;;4.47;3.60;;;;;;;;;;5067634;28;20185;-76
2022/03/10 11:30:01;;;;;;;3.73;2.80;;;;;;;;;;5066707;28;20201;-74
2022/03/10 11:32:28;;;;;;;3.37;2.57;;;;;;;;;;5068984;28;20342;-78
2022/03/10 11:35:00;;;;;;;3.07;2.50;;;;;;;;;;5068811;28;20193;-75
2022/03/10 11:37:44;;;;;;;2.70;2.37;;;;;;;;;;5084208;28;20219;-76
2022/03/10 11:40:19;;;;;;;3.30;2.60;;;;;;;;;;5066336;28;20217;-78
2022/03/10 11:42:59;;;;;;;4.13;2.93;;;;;;;;;;5061043;28;20249;-74
2022/03/10 11:45:28;;;;;;;3.20;2.60;;;;;;;;;;5065226;28;20200;-77
2022/03/10 11:47:54;;;;;;;3.23;2.90;;;;;;;;;;5060857;28;20601;-76
2022/03/10 11:50:24;;;;;;;3.63;2.80;;;;;;;;;;5066334;28;20279;-76
2022/03/10 11:52:55;;;;;;;4.17;3.60;;;;;;;;;;5065544;28;20272;-74
2022/03/10 11:55:25;;;;;;;3.13;2.83;;;;;;;;;;5062731;28;20216;-75
2022/03/10 11:57:54;;;;;;;3.60;3.00;;;;;;;;;;5054663;28;20247;-75
2022/03/10 12:00:24;;;;;;;4.93;3.73;;;;;;;;;;5062524;28;20244;-75
2022/03/10 12:03:00;;;;;;;6.37;3.73;;;;;;;;;;5069501;28;20173;-74
2022/03/10 12:05:47;;;;;;;5.50;3.77;;;;;;;;;;5060511;28;20196;-75
2022/03/10 12:08:17;;;;;;;3.50;2.90;;;;;;;;;;5069119;28;20588;-75
2022/03/10 12:10:44;;;;;;;4.13;3.50;;;;;;;;;;5069410;28;22118;-82
2022/03/10 12:13:29;;;;;;;4.17;3.60;;;;;;;;;;5073736;28;20177;-80
2022/03/10 12:15:55;;;;;;;6.23;3.83;;;;;;;;;;5072179;28;20180;-81
2022/03/10 12:18:26;;;;;;;4.23;3.13;;;;;;;;;;5059712;28;20209;-81
2022/03/10 12:20:53;;;;;;;6.90;3.77;;;;;;;;;;5061778;28;20224;-80
2022/03/10 12:23:22;;;;;;;4.53;3.80;;;;;;;;;;5059815;28;20264;-81
2022/03/10 12:25:54;;;;;;;4.90;3.87;;;;;;;;;;5067971;28;20519;-77
2022/03/10 12:28:33;;;;;;;4.30;3.77;;;;;;;;;;5088485;28;20260;-85
2022/03/10 12:31:02;;;;;;;5.90;4.00;;;;;;;;;;5070088;28;20232;-77
2022/03/10 12:33:28;;;;;;;6.03;3.80;;;;;;;;;;5081458;28;20216;-77
2022/03/10 12:35:59;;;;;;;4.00;3.53;;;;;;;;;;5064884;28;20189;-77
2022/03/10 12:38:35;;;;;;;7.13;4.00;;;;;;;;;;5064162;28;20217;-76
2022/03/10 12:41:02;;;;;;;4.00;3.60;;;;;;;;;;5066916;28;20762;-77
2022/03/10 12:43:29;;;;;;;7.00;3.87;;;;;;;;;;5069201;28;20181;-80
2022/03/10 12:45:55;;;;;;;4.87;4.37;;;;;;;;;;5070001;28;20549;-77
2022/03/10 12:48:38;;;;;;;4.33;3.93;;;;;;;;;;5065767;28;20193;-77
2022/03/10 12:51:04;;;;;;;6.20;4.50;;;;;;;;;;5067229;28;20202;-77
2022/03/10 12:53:32;;;;;;;5.70;5.10;;;;;;;;;;5080036;28;20273;-77
2022/03/10 12:55:59;;;;;;;4.73;4.23;;;;;;;;;;5062523;28;20261;-77
2022/03/10 12:58:29;;;;;;;4.83;4.33;;;;;;;;;;5047401;28;20210;-78
2022/03/10 13:01:04;;;;;;;4.57;4.13;;;;;;;;;;5063432;28;20634;-78
2022/03/10 13:03:36;;;;;;;5.60;4.87;;;;;;;;;;5062272;28;20256;-77
2022/03/10 13:06:07;;;;;;;5.77;4.90;;;;;;;;;;5065899;28;20236;-77
2022/03/10 13:08:40;;;;;;;5.03;4.50;;;;;;;;;;5070954;28;20178;-80
2022/03/10 13:11:07;;;;;;;5.07;4.43;;;;;;;;;;5069906;28;20246;-79
2022/03/10 13:13:34;;;;;;;5.40;4.60;;;;;;;;;;5069137;28;20177;-80
2022/03/10 13:16:01;;;;;;;5.13;4.63;;;;;;;;;;5068643;28;20174;-80
2022/03/10 13:18:27;;;;;;;7.07;4.60;;;;;;;;;;5050870;28;20984;-78
2022/03/10 13:20:58;;;;;;;4.90;4.40;;;;;;;;;;5069284;28;20205;-80
2022/03/10 13:23:27;;;;;;;5.00;4.60;;;;;;;;;;5066495;28;20246;-79
2022/03/10 13:25:54;;;;;;;5.07;4.57;;;;;;;;;;5064004;28;20804;-79
2022/03/10 13:28:20;;;;;;;5.03;4.53;;;;;;;;;;5066338;28;20187;-80
2022/03/10 13:30:46;;;;;;;5.57;4.63;;;;;;;;;;5083196;28;20217;-80
2022/03/10 13:33:13;;;;;;;5.73;4.93;;;;;;;;;;5083182;28;20186;-79
2022/03/10 13:35:43;;;;;;;5.60;5.10;;;;;;;;;;5067556;28;20196;-79
2022/03/10 13:38:23;;;;;;;5.50;5.00;;;;;;;;;;5072675;28;20224;-81
2022/03/10 13:40:49;;;;;;;7.77;5.67;;;;;;;;;;5066772;28;20733;-81
2022/03/10 13:43:26;;;;;;;6.23;5.37;;;;;;;;;;5069096;28;20187;-83
2022/03/10 13:45:53;;;;;;;7.10;5.73;;;;;;;;;;5053979;28;20258;-80
2022/03/10 13:48:23;;;;;;;6.30;5.70;;;;;;;;;;5060686;28;20196;-81
2022/03/10 13:50:50;;;;;;;6.60;5.90;;;;;;;;;;5074048;28;20199;-76
2022/03/10 13:53:16;;;;;;;6.20;5.30;;;;;;;;;;5054376;28;20192;-78
2022/03/10 13:55:51;;;;;;;7.00;6.30;;;;;;;;;;5071740;28;20280;-81
2022/03/10 13:58:18;;;;;;;7.53;6.53;;;;;;;;;;5089573;28;20268;-82
2022/03/10 14:00:46;;;;;;;6.60;5.87;;;;;;;;;;5070509;28;20231;-79
2022/03/10 14:03:13;;;;;;;6.65;6.05;;;;;;;;;;5081539;28;20521;-76
2022/03/10 14:05:40;;;;;;;6.70;6.07;;;;;;;;;;5065243;28;20188;-84
2022/03/10 14:08:18;;;;;;;6.90;6.20;;;;;;;;;;5068593;28;20195;-80
2022/03/10 14:11:00;;;;;;;8.27;7.00;;;;;;;;;;5070779;28;20303;-80
2022/03/10 14:13:27;;;;;;;8.33;7.00;;;;;;;;;;5067681;28;20241;-76
2022/03/10 14:15:57;;;;;;;7.43;6.73;;;;;;;;;;5067775;28;20189;-77
2022/03/10 14:18:24;;;;;;;8.00;6.47;;;;;;;;;;5074879;28;20206;-80
2022/03/10 14:20:52;;;;;;;7.90;6.50;;;;;;;;;;5070364;28;20205;-81
2022/03/10 14:23:22;;;;;;;6.93;6.23;;;;;;;;;;5070667;28;20238;-80
2022/03/10 14:25:51;;;;;;;6.83;5.80;;;;;;;;;;5068450;28;20192;-79
2022/03/10 14:28:18;;;;;;;6.00;5.50;;;;;;;;;;5083804;28;20268;-79
2022/03/10 14:30:50;;;;;;;6.20;5.57;;;;;;;;;;5069572;28;20201;-78